createdAt,value
2023-05-12T00:00:19.313Z,11.73
2023-05-12T00:02:46.528Z,11.86
2023-05-12T00:05:13.617Z,12.03
2023-05-12T00:07:40.674Z,12.01
2023-05-12T00:10:08.134Z,11.84
2023-05-12T00:12:35.199Z,11.86
2023-05-12T00:15:02.246Z,11.82
2023-05-12T00:17:29.261Z,11.75
2023-05-12T00:19:56.309Z,11.80
2023-05-12T00:22:23.293Z,11.79
2023-05-12T00:24:50.278Z,11.80
2023-05-12T00:27:17.259Z,11.96
2023-05-12T00:29:44.678Z,11.86
2023-05-12T00:32:11.719Z,11.90
2023-05-12T00:34:38.711Z,11.92
2023-05-12T00:37:06.468Z,11.80
2023-05-12T00:39:33.454Z,11.81
2023-05-12T00:42:00.542Z,11.81
2023-05-12T00:44:27.538Z,11.75
2023-05-12T00:46:55.356Z,11.65
2023-05-12T00:49:22.533Z,11.64
2023-05-12T00:51:50.062Z,11.72
2023-05-12T00:54:17.515Z,11.65
2023-05-12T00:56:44.597Z,11.82
2023-05-12T00:59:11.727Z,11.75
2023-05-12T01:01:38.867Z,11.69
2023-05-12T01:04:06.438Z,11.76
2023-05-12T01:06:54.315Z,11.65
2023-05-12T01:09:21.524Z,11.87
2023-05-12T01:11:48.553Z,11.80
2023-05-12T01:14:15.797Z,11.62
2023-05-12T01:16:53.640Z,11.48
2023-05-12T01:19:54.019Z,11.50
2023-05-12T01:22:21.351Z,11.57
2023-05-12T01:24:54.690Z,11.41
2023-05-12T01:27:25.909Z,11.40
2023-05-12T01:29:54.808Z,11.56
2023-05-12T01:32:22.325Z,11.59
2023-05-12T01:34:50.381Z,11.55
2023-05-12T01:37:17.496Z,11.52
2023-05-12T01:39:44.825Z,11.47
2023-05-12T01:42:12.061Z,11.41
2023-05-12T01:44:39.067Z,11.43
2023-05-12T01:47:09.878Z,11.32
2023-05-12T01:49:37.804Z,11.28
2023-05-12T01:52:05.453Z,11.46
2023-05-12T01:54:32.486Z,11.19
2023-05-12T01:56:59.473Z,11.23
2023-05-12T01:59:27.440Z,11.26
2023-05-12T02:01:54.769Z,11.22
2023-05-12T02:04:21.800Z,11.02
2023-05-12T02:06:48.965Z,11.01
2023-05-12T02:09:16.059Z,11.15
2023-05-12T02:11:43.064Z,11.10
2023-05-12T02:14:10.124Z,11.13
2023-05-12T02:16:37.183Z,11.15
2023-05-12T02:19:04.380Z,11.21
2023-05-12T02:21:31.486Z,10.94
2023-05-12T02:23:58.551Z,11.05
2023-05-12T02:26:25.625Z,10.88
2023-05-12T02:28:52.628Z,10.85
2023-05-12T02:31:19.677Z,11.00
2023-05-12T02:33:46.715Z,11.06
2023-05-12T02:36:13.814Z,10.98
2023-05-12T02:38:41.285Z,10.87
2023-05-12T02:41:08.379Z,10.86
2023-05-12T02:43:35.498Z,10.70
2023-05-12T02:46:02.780Z,10.87
2023-05-12T02:48:29.820Z,10.91
2023-05-12T02:50:57.380Z,10.62
2023-05-12T02:53:24.513Z,10.72
2023-05-12T02:55:51.651Z,10.63
2023-05-12T02:58:18.709Z,10.61
2023-05-12T03:00:46.127Z,10.58
2023-05-12T03:03:14.532Z,10.59
2023-05-12T03:05:41.660Z,10.69
2023-05-12T03:08:08.665Z,10.58
2023-05-12T03:10:36.036Z,10.59
2023-05-12T03:13:03.186Z,10.62
2023-05-12T03:15:30.238Z,10.84
2023-05-12T03:17:57.241Z,11.02
2023-05-12T03:20:24.383Z,11.02
2023-05-12T03:22:51.453Z,11.42
2023-05-12T03:25:18.473Z,11.88
2023-05-12T03:27:45.614Z,12.45
2023-05-12T03:30:13.387Z,12.76
2023-05-12T03:32:40.616Z,13.72
2023-05-12T03:35:08.284Z,14.17
2023-05-12T03:37:35.361Z,14.97
2023-05-12T03:40:02.367Z,15.71
2023-05-12T03:42:29.324Z,16.51
2023-05-12T03:44:56.316Z,17.56
2023-05-12T03:47:23.504Z,17.54
2023-05-12T03:49:50.672Z,18.09
2023-05-12T03:52:17.769Z,18.54
2023-05-12T03:54:44.785Z,19.02
2023-05-12T03:57:12.998Z,19.66
2023-05-12T03:59:40.052Z,20.09
2023-05-12T04:02:11.736Z,20.94
2023-05-12T04:04:38.815Z,21.21
2023-05-12T04:07:05.959Z,22.50
2023-05-12T04:09:33.319Z,22.47
2023-05-12T04:12:00.318Z,23.37
2023-05-12T04:14:39.100Z,23.82
2023-05-12T04:17:09.617Z,24.65
2023-05-12T04:19:36.711Z,25.73
2023-05-12T04:22:03.786Z,26.39
2023-05-12T04:24:31.345Z,27.35
2023-05-12T04:26:58.497Z,27.31
2023-05-12T04:29:25.507Z,27.16
2023-05-12T04:31:54.834Z,27.49
2023-05-12T04:34:21.885Z,27.64
2023-05-12T04:36:48.934Z,27.88
2023-05-12T04:39:16.056Z,27.23
2023-05-12T04:41:43.064Z,27.95
2023-05-12T04:44:10.077Z,29.20
2023-05-12T04:46:37.107Z,30.16
2023-05-12T04:49:04.636Z,29.48
2023-05-12T04:51:32.252Z,30.21
2023-05-12T04:53:59.218Z,29.28
2023-05-12T04:56:26.207Z,30.98
2023-05-12T04:58:53.222Z,30.21
2023-05-12T05:01:20.401Z,30.90
2023-05-12T05:03:47.565Z,31.16
2023-05-12T05:06:14.726Z,31.56
2023-05-12T05:08:41.825Z,30.04
2023-05-12T05:11:08.871Z,30.26
2023-05-12T05:13:35.898Z,30.99
2023-05-12T05:16:03.057Z,32.39
2023-05-12T05:18:30.281Z,31.48
2023-05-12T05:20:58.829Z,31.54
2023-05-12T05:23:26.799Z,32.74
2023-05-12T05:25:53.929Z,30.47
2023-05-12T05:28:20.944Z,31.58
2023-05-12T05:30:48.025Z,33.58
2023-05-12T05:33:15.076Z,32.96
2023-05-12T05:35:42.571Z,35.11
2023-05-12T05:38:09.652Z,34.56
2023-05-12T05:40:49.321Z,36.00
2023-05-12T05:43:19.765Z,34.98
2023-05-12T05:45:47.259Z,34.80
2023-05-12T05:48:14.213Z,36.08
2023-05-12T05:50:41.453Z,36.51
2023-05-12T05:53:08.437Z,33.65
2023-05-12T05:55:35.521Z,35.56
2023-05-12T05:58:02.514Z,33.79
2023-05-12T06:00:29.513Z,33.75
2023-05-12T06:02:56.705Z,32.41
2023-05-12T06:05:23.841Z,30.47
2023-05-12T06:07:50.803Z,30.16
2023-05-12T06:10:18.027Z,30.82
2023-05-12T06:12:45.192Z,30.38
2023-05-12T06:15:12.705Z,31.35
2023-05-12T06:17:39.856Z,31.91
2023-05-12T06:20:08.193Z,32.09
2023-05-12T06:22:35.314Z,32.31
2023-05-12T06:25:02.689Z,32.20
2023-05-12T06:27:30.014Z,32.34
2023-05-12T06:29:56.986Z,32.12
2023-05-12T06:32:23.977Z,31.48
2023-05-12T06:34:51.062Z,32.43
2023-05-12T06:37:18.218Z,30.32
2023-05-12T06:39:45.227Z,30.93
2023-05-12T06:42:12.268Z,30.56
2023-05-12T06:44:41.203Z,31.47
2023-05-12T06:47:09.283Z,33.12
2023-05-12T06:49:38.046Z,33.66
2023-05-12T06:52:07.974Z,34.42
2023-05-12T06:54:35.017Z,34.29
2023-05-12T06:57:01.986Z,34.20
2023-05-12T06:59:29.048Z,34.51
2023-05-12T07:01:56.098Z,33.95
2023-05-12T07:04:23.448Z,33.90
2023-05-12T07:06:52.216Z,35.05
2023-05-12T07:09:19.227Z,32.75
2023-05-12T07:11:46.890Z,32.68
2023-05-12T07:14:13.841Z,31.04
2023-05-12T07:16:40.877Z,31.98
2023-05-12T07:19:09.094Z,32.09
2023-05-12T07:21:37.227Z,31.26
2023-05-12T07:24:06.124Z,30.04
2023-05-12T07:26:33.498Z,29.44
2023-05-12T07:29:01.088Z,28.38
2023-05-12T07:31:28.730Z,28.39
2023-05-12T07:33:56.287Z,27.04
2023-05-12T07:36:23.468Z,26.87
2023-05-12T07:38:50.462Z,26.40
2023-05-12T07:41:18.110Z,27.20
2023-05-12T07:43:45.843Z,27.34
2023-05-12T07:46:12.919Z,28.03
2023-05-12T07:48:40.658Z,27.21
2023-05-12T07:51:08.934Z,25.55
2023-05-12T07:53:36.100Z,25.56
2023-05-12T07:56:03.293Z,25.21
2023-05-12T07:58:30.334Z,24.65
2023-05-12T08:01:00.190Z,24.30
2023-05-12T08:03:27.597Z,25.20
2023-05-12T08:05:54.709Z,25.07
2023-05-12T08:08:21.795Z,25.28
2023-05-12T08:10:48.775Z,24.61
2023-05-12T08:13:15.823Z,24.42
2023-05-12T08:15:42.960Z,25.44
2023-05-12T08:18:10.105Z,24.93
2023-05-12T08:20:37.247Z,24.74
2023-05-12T08:23:04.266Z,25.16
2023-05-12T08:25:31.421Z,24.67
2023-05-12T08:27:59.842Z,25.51
2023-05-12T08:30:27.557Z,25.15
2023-05-12T08:32:56.658Z,26.08
2023-05-12T08:35:26.557Z,26.16
2023-05-12T08:37:53.654Z,25.65
2023-05-12T08:40:25.066Z,23.35
2023-05-12T08:43:12.345Z,22.45
2023-05-12T08:45:41.361Z,22.14
2023-05-12T08:48:11.402Z,22.56
2023-05-12T08:50:41.227Z,21.79
2023-05-12T08:53:12.301Z,21.50
2023-05-12T08:55:46.065Z,21.09
2023-05-12T08:58:21.498Z,20.94
2023-05-12T09:00:54.856Z,20.85
2023-05-12T09:03:23.409Z,21.36
2023-05-12T09:05:50.599Z,21.47
2023-05-12T09:08:18.194Z,21.65
2023-05-12T09:10:45.998Z,21.45
2023-05-12T09:13:37.571Z,21.47
2023-05-12T09:16:07.821Z,21.50
2023-05-12T09:18:58.715Z,21.63
2023-05-12T09:21:27.011Z,21.64
2023-05-12T09:23:57.330Z,22.16
2023-05-12T09:26:26.450Z,22.69
2023-05-12T09:29:06.651Z,21.84
2023-05-12T09:31:34.078Z,21.78
2023-05-12T09:34:02.393Z,22.01
2023-05-12T09:36:29.443Z,22.38
2023-05-12T09:39:07.354Z,22.49
2023-05-12T09:41:38.645Z,22.87
2023-05-12T09:44:06.813Z,22.77
2023-05-12T09:46:34.264Z,23.11
2023-05-12T09:49:03.729Z,22.93
2023-05-12T09:51:31.231Z,23.45
2023-05-12T09:53:59.104Z,22.98
2023-05-12T09:56:29.719Z,22.57
2023-05-12T09:58:57.834Z,21.69
2023-05-12T10:01:26.816Z,21.18
2023-05-12T10:03:59.158Z,21.07
2023-05-12T10:06:42.864Z,20.60
2023-05-12T10:09:25.887Z,20.93
2023-05-12T10:11:54.172Z,21.25
2023-05-12T10:14:23.529Z,21.04
2023-05-12T10:16:52.050Z,21.13
2023-05-12T10:19:20.222Z,21.37
2023-05-12T10:21:47.783Z,21.94
2023-05-12T10:24:18.185Z,21.50
2023-05-12T10:26:45.529Z,21.54
2023-05-12T10:29:14.050Z,21.46
2023-05-12T10:31:42.533Z,20.83
2023-05-12T10:34:21.599Z,20.84
2023-05-12T10:36:51.340Z,20.88
2023-05-12T10:39:19.513Z,21.20
2023-05-12T10:41:46.585Z,21.38
2023-05-12T10:44:13.709Z,21.26
2023-05-12T10:46:42.003Z,20.65
2023-05-12T10:49:12.914Z,20.80
2023-05-12T10:51:51.133Z,20.90
2023-05-12T10:54:25.388Z,21.09
2023-05-12T10:56:57.521Z,20.83
2023-05-12T10:59:27.196Z,21.14
2023-05-12T11:02:20.302Z,20.95
2023-05-12T11:04:55.855Z,21.05
2023-05-12T11:07:30.605Z,20.80
2023-05-12T11:10:01.654Z,20.66
2023-05-12T11:12:33.174Z,20.26
2023-05-12T11:15:03.402Z,20.43
2023-05-12T11:17:30.732Z,20.17
2023-05-12T11:19:58.234Z,20.16
2023-05-12T11:22:25.420Z,19.88
2023-05-12T11:24:53.207Z,20.37
2023-05-12T11:27:23.101Z,20.25
2023-05-12T11:30:02.847Z,20.42
2023-05-12T11:32:30.417Z,20.38
2023-05-12T11:35:11.930Z,20.41
2023-05-12T11:37:41.052Z,20.61
2023-05-12T11:40:20.982Z,21.00
2023-05-12T11:42:55.893Z,21.10
2023-05-12T11:45:30.623Z,21.19
2023-05-12T11:48:14.848Z,21.16
2023-05-12T11:50:46.869Z,21.04
2023-05-12T11:53:17.550Z,21.15
2023-05-12T11:55:56.391Z,20.95
2023-05-12T11:58:30.697Z,21.19
2023-05-12T12:01:10.030Z,20.99
2023-05-12T12:03:50.039Z,20.74
2023-05-12T12:06:19.525Z,20.59
2023-05-12T12:09:02.710Z,21.03
2023-05-12T12:11:30.845Z,20.99
2023-05-12T12:13:58.217Z,21.09
2023-05-12T12:16:27.359Z,20.97
2023-05-12T12:18:54.929Z,20.59
2023-05-12T12:21:26.916Z,20.60
2023-05-12T12:23:53.888Z,20.67
2023-05-12T12:26:21.657Z,20.10
2023-05-12T12:28:49.249Z,19.94
2023-05-12T12:31:16.750Z,20.10
2023-05-12T12:33:43.956Z,20.21
2023-05-12T12:36:10.999Z,20.31
2023-05-12T12:38:38.101Z,20.61
2023-05-12T12:41:06.428Z,21.06
2023-05-12T12:43:33.686Z,20.78
2023-05-12T12:46:00.916Z,20.58
2023-05-12T12:48:28.911Z,20.74
2023-05-12T12:50:56.409Z,20.55
2023-05-12T12:53:23.714Z,20.82
2023-05-12T12:55:51.219Z,20.64
2023-05-12T12:58:18.203Z,20.66
2023-05-12T13:00:45.544Z,20.83
2023-05-12T13:03:12.731Z,21.03
2023-05-12T13:05:39.763Z,20.58
2023-05-12T13:08:07.317Z,20.26
2023-05-12T13:10:34.924Z,20.25
2023-05-12T13:13:02.117Z,20.10
2023-05-12T13:15:29.571Z,20.43
2023-05-12T13:17:56.707Z,20.26
2023-05-12T13:20:23.845Z,20.42
2023-05-12T13:22:50.817Z,20.31
2023-05-12T13:25:18.264Z,20.53
2023-05-12T13:27:45.275Z,20.69
2023-05-12T13:30:13.940Z,20.82
2023-05-12T13:32:41.618Z,20.76
2023-05-12T13:35:09.379Z,20.90
2023-05-12T13:37:37.540Z,20.91
2023-05-12T13:40:05.060Z,21.02
2023-05-12T13:42:32.524Z,21.36
2023-05-12T13:44:59.564Z,20.84
2023-05-12T13:47:27.021Z,20.98
2023-05-12T13:49:54.194Z,21.17
2023-05-12T13:52:21.172Z,20.99
2023-05-12T13:54:48.257Z,20.98
2023-05-12T13:57:15.241Z,21.02
2023-05-12T13:59:42.208Z,21.00
2023-05-12T14:02:11.947Z,20.97
2023-05-12T14:04:38.948Z,21.10
2023-05-12T14:07:08.314Z,21.18
2023-05-12T14:09:35.667Z,21.42
2023-05-12T14:12:04.437Z,21.40
2023-05-12T14:14:31.616Z,21.08
2023-05-12T14:16:58.646Z,21.53
2023-05-12T14:19:25.745Z,21.68
2023-05-12T14:21:52.811Z,20.91
2023-05-12T14:24:20.003Z,21.02
2023-05-12T14:26:46.973Z,21.00
2023-05-12T14:29:14.000Z,21.10
2023-05-12T14:31:41.126Z,20.98
2023-05-12T14:34:09.271Z,21.25
2023-05-12T14:36:36.434Z,21.21
2023-05-12T14:39:03.802Z,21.40
2023-05-12T14:41:30.979Z,21.39
2023-05-12T14:43:58.660Z,21.03
2023-05-12T14:46:25.903Z,21.21
2023-05-12T14:48:53.078Z,21.19
2023-05-12T14:51:20.086Z,21.23
2023-05-12T14:53:47.132Z,20.98
2023-05-12T14:56:14.203Z,20.82
2023-05-12T14:58:41.190Z,20.82
2023-05-12T15:01:09.467Z,20.95
2023-05-12T15:03:36.919Z,20.85
2023-05-12T15:06:07.634Z,20.99
2023-05-12T15:08:35.332Z,21.01
2023-05-12T15:11:02.320Z,20.98
2023-05-12T15:13:29.415Z,20.97
2023-05-12T15:15:57.091Z,21.15
2023-05-12T15:18:24.516Z,20.78
2023-05-12T15:20:52.037Z,20.98
2023-05-12T15:23:19.060Z,20.94
2023-05-12T15:25:46.106Z,21.10
2023-05-12T15:28:13.141Z,21.01
2023-05-12T15:30:40.237Z,20.75
2023-05-12T15:33:07.380Z,20.74
2023-05-12T15:35:34.626Z,20.63
2023-05-12T15:38:01.640Z,20.53
2023-05-12T15:40:30.843Z,20.42
2023-05-12T15:42:58.056Z,20.23
2023-05-12T15:45:25.129Z,20.49
2023-05-12T15:47:52.213Z,20.56
2023-05-12T15:50:22.691Z,20.66
2023-05-12T15:52:50.201Z,20.36
2023-05-12T15:55:17.573Z,20.29
2023-05-12T15:57:44.786Z,20.37
2023-05-12T16:00:12.842Z,20.46
2023-05-12T16:02:40.290Z,20.26
2023-05-12T16:05:07.927Z,20.35
2023-05-12T16:07:35.284Z,20.32
2023-05-12T16:10:03.432Z,20.60
2023-05-12T16:12:30.766Z,20.46
2023-05-12T16:14:57.820Z,20.18
2023-05-12T16:17:24.982Z,20.07
2023-05-12T16:19:53.652Z,20.43
2023-05-12T16:22:20.704Z,20.45
2023-05-12T16:24:48.003Z,20.34
2023-05-12T16:27:15.320Z,20.49
2023-05-12T16:29:45.980Z,20.45
2023-05-12T16:32:13.119Z,20.17
2023-05-12T16:34:40.445Z,20.07
2023-05-12T16:37:07.630Z,19.85
2023-05-12T16:39:35.976Z,20.09
2023-05-12T16:42:03.557Z,19.96
2023-05-12T16:44:30.618Z,20.04
2023-05-12T16:46:57.664Z,19.86
2023-05-12T16:49:24.677Z,20.09
2023-05-12T16:51:51.680Z,19.80
2023-05-12T16:54:18.771Z,19.86
2023-05-12T16:56:45.976Z,19.81
2023-05-12T16:59:13.011Z,19.85
2023-05-12T17:01:40.115Z,19.96
2023-05-12T17:04:08.018Z,19.95
2023-05-12T17:06:35.101Z,19.81
2023-05-12T17:09:02.130Z,19.91
2023-05-12T17:11:29.234Z,19.94
2023-05-12T17:13:56.240Z,19.63
2023-05-12T17:16:23.283Z,19.66
2023-05-12T17:21:20.333Z,19.70
2023-05-12T17:23:47.672Z,19.57
2023-05-12T17:26:14.801Z,19.76
2023-05-12T17:28:42.381Z,19.38
2023-05-12T17:31:09.419Z,19.52
2023-05-12T17:33:37.011Z,19.49
2023-05-12T17:36:12.259Z,19.50
2023-05-12T17:38:41.273Z,19.55
2023-05-12T17:41:08.449Z,19.30
2023-05-12T17:43:35.558Z,19.38
2023-05-12T17:46:04.119Z,19.41
2023-05-12T17:48:33.370Z,19.30
2023-05-12T17:51:02.261Z,19.30
2023-05-12T17:53:31.205Z,19.13
2023-05-12T17:55:59.260Z,19.20
2023-05-12T17:58:26.523Z,18.89
2023-05-12T18:00:53.751Z,18.93
2023-05-12T18:03:24.028Z,18.89
2023-05-12T18:05:53.307Z,19.03
2023-05-12T18:08:20.681Z,19.02
2023-05-12T18:10:47.987Z,18.93
2023-05-12T18:13:15.582Z,18.71
2023-05-12T18:15:43.157Z,18.74
2023-05-12T18:18:10.807Z,18.76
2023-05-12T18:20:38.218Z,18.58
2023-05-12T18:23:05.342Z,18.49
2023-05-12T18:25:32.363Z,18.50
2023-05-12T18:27:59.368Z,18.67
2023-05-12T18:30:26.396Z,18.38
2023-05-12T18:32:53.699Z,18.36
2023-05-12T18:35:20.968Z,18.45
2023-05-12T18:37:48.188Z,18.36
2023-05-12T18:40:15.263Z,18.18
2023-05-12T18:42:42.681Z,18.21
2023-05-12T18:45:10.290Z,18.12
2023-05-12T18:47:37.529Z,18.01
2023-05-12T18:50:05.406Z,18.07
2023-05-12T18:52:32.459Z,18.03
2023-05-12T18:54:59.725Z,17.82
2023-05-12T18:57:26.836Z,17.69
2023-05-12T18:59:53.908Z,17.68
2023-05-12T19:02:20.905Z,17.70
2023-05-12T19:04:48.466Z,17.67
2023-05-12T19:07:15.843Z,17.74
2023-05-12T19:09:44.090Z,17.68
2023-05-12T19:12:11.849Z,17.68
2023-05-12T19:14:40.144Z,17.63
2023-05-12T19:17:07.770Z,17.58
2023-05-12T19:19:35.310Z,17.53
2023-05-12T19:22:04.151Z,17.38
2023-05-12T19:24:31.224Z,17.31
2023-05-12T19:26:58.219Z,17.35
2023-05-12T19:29:25.370Z,17.24
2023-05-12T19:31:53.240Z,17.34
2023-05-12T19:34:20.686Z,17.31
2023-05-12T19:36:47.963Z,17.28
2023-05-12T19:39:15.070Z,17.23
2023-05-12T19:41:42.106Z,17.17
2023-05-12T19:44:09.192Z,17.12
2023-05-12T19:46:36.672Z,17.11
2023-05-12T19:49:05.889Z,17.00
2023-05-12T19:51:33.199Z,16.86
2023-05-12T19:54:01.961Z,16.86
2023-05-12T19:56:30.346Z,16.82
2023-05-12T19:58:57.328Z,16.79
2023-05-12T20:01:24.708Z,16.54
2023-05-12T20:03:54.149Z,16.56
2023-05-12T20:06:22.474Z,16.52
2023-05-12T20:08:49.573Z,16.59
2023-05-12T20:11:16.582Z,16.54
2023-05-12T20:13:43.609Z,16.59
2023-05-12T20:16:10.736Z,16.48
2023-05-12T20:18:37.812Z,16.29
2023-05-12T20:21:04.940Z,16.22
2023-05-12T20:23:33.092Z,16.19
2023-05-12T20:26:00.275Z,16.23
2023-05-12T20:28:28.298Z,16.26
2023-05-12T20:30:55.360Z,16.20
2023-05-12T20:33:22.516Z,16.01
2023-05-12T20:35:49.540Z,16.01
2023-05-12T20:38:16.774Z,16.01
2023-05-12T20:40:43.780Z,16.10
2023-05-12T20:43:10.837Z,15.88
2023-05-12T20:45:37.938Z,15.93
2023-05-12T20:48:05.255Z,15.86
2023-05-12T20:50:32.274Z,15.88
2023-05-12T20:52:59.560Z,15.84
2023-05-12T20:55:26.557Z,15.82
2023-05-12T20:57:53.899Z,15.83
2023-05-12T21:00:21.658Z,15.83
2023-05-12T21:02:52.132Z,15.78
2023-05-12T21:05:19.661Z,15.77
2023-05-12T21:07:46.854Z,15.72
2023-05-12T21:10:13.806Z,15.59
2023-05-12T21:12:40.947Z,15.50
2023-05-12T21:15:10.522Z,15.44
2023-05-12T21:17:39.387Z,15.51
2023-05-12T21:20:10.157Z,15.45
2023-05-12T21:22:38.261Z,15.42
2023-05-12T21:25:06.190Z,15.49
2023-05-12T21:27:33.232Z,15.46
2023-05-12T21:30:00.296Z,15.41
2023-05-12T21:32:27.920Z,15.48
2023-05-12T21:34:55.466Z,15.41
2023-05-12T21:37:22.488Z,15.39
2023-05-12T21:39:49.446Z,15.42
2023-05-12T21:42:16.386Z,15.43
2023-05-12T21:44:43.436Z,15.40
2023-05-12T21:47:10.547Z,15.23
2023-05-12T21:49:37.517Z,15.20
2023-05-12T21:52:04.788Z,15.12
2023-05-12T21:54:34.871Z,15.04
2023-05-12T21:57:02.869Z,14.99
2023-05-12T21:59:30.645Z,15.09
2023-05-12T22:01:57.885Z,14.84
2023-05-12T22:04:24.962Z,14.89
2023-05-12T22:06:52.035Z,14.83
2023-05-12T22:09:20.377Z,14.78
2023-05-12T22:11:47.583Z,14.67
2023-05-12T22:14:14.676Z,14.53
2023-05-12T22:16:42.740Z,14.70
2023-05-12T22:19:10.373Z,14.51
2023-05-12T22:21:37.524Z,14.50
2023-05-12T22:24:05.076Z,14.43
2023-05-12T22:26:32.853Z,14.21
2023-05-12T22:28:59.844Z,14.09
2023-05-12T22:31:27.025Z,14.07
2023-05-12T22:33:54.065Z,14.11
2023-05-12T22:36:21.535Z,14.02
2023-05-12T22:38:48.686Z,14.06
2023-05-12T22:41:15.848Z,13.76
2023-05-12T22:43:42.872Z,13.76
2023-05-12T22:46:09.962Z,13.84
2023-05-12T22:48:39.500Z,13.68
2023-05-12T22:51:07.100Z,13.63
2023-05-12T22:53:36.605Z,13.57
2023-05-12T22:56:04.728Z,13.58
2023-05-12T22:58:31.728Z,13.55
2023-05-12T23:01:00.374Z,13.59
2023-05-12T23:03:27.525Z,13.53
2023-05-12T23:05:54.518Z,13.58
2023-05-12T23:08:21.644Z,13.52
2023-05-12T23:10:48.667Z,13.49
2023-05-12T23:13:15.795Z,13.58
2023-05-12T23:15:42.812Z,13.38
2023-05-12T23:18:09.863Z,13.40
2023-05-12T23:20:36.889Z,13.26
2023-05-12T23:23:03.908Z,13.31
2023-05-12T23:25:31.779Z,13.36
2023-05-12T23:27:58.808Z,13.21
2023-05-12T23:30:25.932Z,13.29
2023-05-12T23:32:53.071Z,13.29
2023-05-12T23:35:20.253Z,13.19
2023-05-12T23:37:47.572Z,13.19
2023-05-12T23:40:14.525Z,13.11
2023-05-12T23:42:41.661Z,13.18
2023-05-12T23:45:09.345Z,13.20
2023-05-12T23:47:36.435Z,13.08
2023-05-12T23:50:03.800Z,13.08
2023-05-12T23:52:30.934Z,12.93
2023-05-12T23:54:58.014Z,12.97
2023-05-12T23:57:25.034Z,12.97
2023-05-12T23:59:52.064Z,13.03
